createdAt,value
2018-04-27T00:00:54.664Z,0.00
2018-04-27T00:01:54.691Z,0.00
2018-04-27T00:02:54.703Z,0.00
2018-04-27T00:03:54.717Z,0.00
2018-04-27T00:04:54.729Z,0.00
2018-04-27T00:05:54.747Z,0.00
2018-04-27T00:06:54.758Z,0.00
2018-04-27T00:07:54.783Z,0.00
2018-04-27T00:08:54.797Z,0.00
2018-04-27T00:09:54.809Z,0.00
2018-04-27T00:10:54.824Z,0.00
2018-04-27T00:11:54.849Z,0.00
2018-04-27T00:12:54.863Z,0.00
2018-04-27T00:13:54.878Z,0.00
2018-04-27T00:14:54.891Z,0.00
2018-04-27T00:15:54.905Z,0.00
2018-04-27T00:16:54.917Z,0.00
2018-04-27T00:17:54.943Z,0.00
2018-04-27T00:18:54.957Z,0.00
2018-04-27T00:19:54.970Z,0.00
2018-04-27T00:20:54.985Z,0.00
2018-04-27T00:21:54.997Z,0.00
2018-04-27T00:22:55.010Z,0.00
2018-04-27T00:23:55.026Z,0.00
2018-04-27T00:24:55.050Z,0.00
2018-04-27T00:25:55.063Z,0.00
2018-04-27T00:26:55.076Z,0.00
2018-04-27T00:27:55.090Z,0.00
2018-04-27T00:28:55.110Z,0.00
2018-04-27T00:29:55.129Z,0.00
2018-04-27T00:30:55.143Z,0.00
2018-04-27T00:31:55.155Z,0.00
2018-04-27T00:32:55.171Z,0.00
2018-04-27T00:33:55.184Z,0.00
2018-04-27T00:34:55.197Z,0.00
2018-04-27T00:35:55.223Z,0.00
2018-04-27T00:36:55.236Z,0.00
2018-04-27T00:37:55.251Z,0.00
2018-04-27T00:38:55.263Z,0.00
2018-04-27T00:39:55.289Z,0.00
2018-04-27T00:40:55.302Z,0.00
2018-04-27T00:41:55.329Z,0.00
2018-04-27T00:42:55.333Z,0.00
2018-04-27T00:43:55.344Z,0.00
2018-04-27T00:44:55.359Z,0.00
2018-04-27T00:45:55.371Z,0.00
2018-04-27T00:46:55.396Z,0.00
2018-04-27T00:47:55.413Z,0.00
2018-04-27T00:48:55.424Z,0.00
2018-04-27T00:49:55.437Z,0.00
2018-04-27T00:50:55.450Z,0.00
2018-04-27T00:51:55.464Z,0.00
2018-04-27T00:52:55.494Z,0.00
2018-04-27T00:53:55.503Z,0.00
2018-04-27T00:54:55.517Z,0.00
2018-04-27T00:55:55.530Z,0.00
2018-04-27T00:56:55.544Z,0.00
2018-04-27T00:57:55.558Z,0.00
2018-04-27T00:58:55.583Z,0.00
2018-04-27T00:59:55.597Z,0.00
2018-04-27T01:00:55.610Z,0.00
2018-04-27T01:01:55.624Z,0.00
2018-04-27T01:02:55.637Z,0.00
2018-04-27T01:03:55.654Z,0.00
2018-04-27T01:04:55.665Z,0.00
2018-04-27T01:05:55.692Z,0.00
2018-04-27T01:06:55.705Z,0.00
2018-04-27T01:07:55.717Z,0.00
2018-04-27T01:08:55.732Z,0.00
2018-04-27T01:09:55.745Z,0.00
2018-04-27T01:10:55.759Z,0.00
2018-04-27T01:11:55.772Z,0.00
2018-04-27T01:12:55.800Z,0.00
2018-04-27T01:13:55.813Z,0.00
2018-04-27T01:14:55.825Z,0.00
2018-04-27T01:15:55.842Z,0.00
2018-04-27T01:16:55.853Z,0.00
2018-04-27T01:17:55.866Z,0.00
2018-04-27T01:18:55.880Z,0.00
2018-04-27T01:19:55.918Z,0.00
2018-04-27T01:20:55.919Z,0.00
2018-04-27T01:21:55.934Z,0.00
2018-04-27T01:22:55.948Z,0.00
2018-04-27T01:23:55.959Z,0.00
2018-04-27T01:24:55.973Z,0.00
2018-04-27T01:25:55.986Z,0.00
2018-04-27T01:26:56.001Z,0.00
2018-04-27T01:27:56.025Z,0.00
2018-04-27T01:28:56.051Z,0.00
2018-04-27T01:29:56.052Z,0.00
2018-04-27T01:30:56.065Z,0.00
2018-04-27T01:31:56.080Z,0.00
2018-04-27T01:32:56.092Z,0.00
2018-04-27T01:33:56.111Z,0.00
2018-04-27T01:34:56.119Z,0.00
2018-04-27T01:35:56.144Z,0.00
2018-04-27T01:36:56.159Z,0.00
2018-04-27T01:37:56.172Z,0.00
2018-04-27T01:38:56.186Z,0.00
2018-04-27T01:39:56.198Z,0.00
2018-04-27T01:40:56.215Z,0.00
2018-04-27T01:41:56.238Z,0.00
2018-04-27T01:42:56.240Z,0.00
2018-04-27T01:43:56.254Z,0.00
2018-04-27T01:44:56.279Z,0.00
2018-04-27T01:45:56.302Z,0.00
2018-04-27T01:46:56.304Z,0.00
2018-04-27T01:47:56.319Z,0.00
2018-04-27T01:48:56.330Z,0.00
2018-04-27T01:49:56.345Z,0.00
2018-04-27T01:50:56.361Z,0.00
2018-04-27T01:51:56.373Z,0.00
2018-04-27T01:52:56.399Z,0.00
2018-04-27T01:53:56.411Z,0.00
2018-04-27T01:54:56.426Z,0.00
2018-04-27T01:55:56.439Z,0.00
2018-04-27T01:56:56.458Z,0.00
2018-04-27T01:57:56.470Z,0.00
2018-04-27T01:58:56.479Z,0.00
2018-04-27T01:59:56.492Z,0.00
2018-04-27T02:00:56.510Z,0.00
2018-04-27T02:01:56.519Z,0.00
2018-04-27T02:02:56.546Z,0.00
2018-04-27T02:03:56.559Z,0.00
2018-04-27T02:04:56.573Z,0.00
2018-04-27T02:05:56.585Z,0.00
2018-04-27T02:06:56.599Z,0.00
2018-04-27T02:07:56.613Z,0.00
2018-04-27T02:08:56.627Z,0.00
2018-04-27T02:09:56.643Z,0.00
2018-04-27T02:10:56.653Z,0.00
2018-04-27T02:11:56.668Z,0.00
2018-04-27T02:12:56.680Z,0.00
2018-04-27T02:13:56.706Z,0.00
2018-04-27T02:14:56.721Z,0.00
2018-04-27T02:15:56.733Z,0.00
2018-04-27T02:16:56.748Z,0.00
2018-04-27T02:17:56.759Z,0.00
2018-04-27T02:18:56.774Z,0.00
2018-04-27T02:19:56.787Z,0.00
2018-04-27T02:20:56.802Z,0.00
2018-04-27T02:21:56.814Z,0.00
2018-04-27T02:22:56.832Z,0.00
2018-04-27T02:23:56.849Z,0.00
2018-04-27T02:24:56.854Z,0.00
2018-04-27T02:25:56.868Z,0.00
2018-04-27T02:26:56.882Z,0.00
2018-04-27T02:27:56.911Z,0.00
2018-04-27T02:28:56.920Z,0.00
2018-04-27T02:29:56.935Z,0.00
2018-04-27T02:30:56.948Z,0.00
2018-04-27T02:31:56.963Z,0.00
2018-04-27T02:32:56.975Z,0.00
2018-04-27T02:33:56.990Z,0.00
2018-04-27T02:34:57.001Z,0.00
2018-04-27T02:35:57.016Z,0.00
2018-04-27T02:36:57.028Z,0.00
2018-04-27T02:37:57.049Z,0.00
2018-04-27T02:38:57.058Z,0.00
2018-04-27T02:39:57.071Z,0.00
2018-04-27T02:40:57.082Z,0.00
2018-04-27T02:41:57.096Z,0.00
2018-04-27T02:42:57.110Z,0.00
2018-04-27T02:43:57.135Z,0.00
2018-04-27T02:44:57.148Z,0.00
2018-04-27T02:45:57.162Z,0.00
2018-04-27T02:46:57.175Z,0.00
2018-04-27T02:47:57.190Z,0.00
2018-04-27T02:48:57.204Z,0.00
2018-04-27T02:49:57.215Z,0.00
2018-04-27T02:50:57.230Z,0.00
2018-04-27T02:51:57.243Z,0.00
2018-04-27T02:52:57.258Z,0.00
2018-04-27T02:53:57.284Z,0.00
2018-04-27T02:54:57.284Z,0.00
2018-04-27T02:55:57.297Z,0.00
2018-04-27T02:56:57.311Z,0.00
2018-04-27T02:57:57.325Z,0.00
2018-04-27T02:58:57.339Z,0.00
2018-04-27T02:59:57.352Z,0.00
2018-04-27T03:00:57.371Z,0.00
2018-04-27T03:01:57.379Z,0.00
2018-04-27T03:02:57.392Z,0.00
2018-04-27T03:03:57.407Z,0.00
2018-04-27T03:04:57.433Z,0.00
2018-04-27T03:05:57.445Z,4.00
2018-04-27T03:06:57.472Z,4.00
2018-04-27T03:07:57.473Z,4.00
2018-04-27T03:08:57.484Z,0.00
2018-04-27T03:09:57.500Z,4.00
2018-04-27T03:10:57.512Z,4.00
2018-04-27T03:11:57.525Z,4.00
2018-04-27T03:12:57.538Z,4.00
2018-04-27T03:13:57.553Z,8.00
2018-04-27T03:14:57.573Z,4.00
2018-04-27T03:15:57.580Z,8.00
2018-04-27T03:16:57.592Z,8.00
2018-04-27T03:17:57.607Z,12.00
2018-04-27T03:18:57.620Z,12.00
2018-04-27T03:19:57.634Z,16.00
2018-04-27T03:20:57.660Z,16.00
2018-04-27T03:21:57.665Z,20.00
2018-04-27T03:22:57.674Z,20.00
2018-04-27T03:23:57.774Z,24.00
2018-04-27T03:24:57.701Z,28.00
2018-04-27T03:25:57.714Z,32.00
2018-04-27T03:26:57.728Z,40.00
2018-04-27T03:27:57.742Z,40.00
2018-04-27T03:28:57.756Z,48.00
2018-04-27T03:29:57.768Z,56.00
2018-04-27T03:30:57.783Z,60.00
2018-04-27T03:31:57.797Z,72.00
2018-04-27T03:32:57.809Z,76.00
2018-04-27T03:33:57.823Z,88.00
2018-04-27T03:34:57.836Z,96.00
2018-04-27T03:35:57.851Z,112.00
2018-04-27T03:36:57.862Z,124.00
2018-04-27T03:37:57.878Z,140.00
2018-04-27T03:38:57.893Z,152.00
2018-04-27T03:39:57.904Z,172.00
2018-04-27T03:40:57.917Z,188.00
2018-04-27T03:41:57.943Z,208.00
2018-04-27T03:42:57.944Z,228.00
2018-04-27T03:43:57.958Z,248.00
2018-04-27T03:44:57.971Z,272.00
2018-04-27T03:45:57.996Z,300.00
2018-04-27T03:46:57.998Z,332.00
2018-04-27T03:47:58.024Z,360.00
2018-04-27T03:48:58.037Z,388.00
2018-04-27T03:49:58.050Z,416.00
2018-04-27T03:50:58.063Z,444.00
2018-04-27T03:51:58.145Z,472.00
2018-04-27T03:52:58.090Z,504.00
2018-04-27T03:53:58.104Z,536.00
2018-04-27T03:54:58.119Z,572.00
2018-04-27T03:55:58.131Z,612.00
2018-04-27T03:56:58.145Z,656.00
2018-04-27T03:57:58.171Z,700.00
2018-04-27T03:58:58.172Z,744.00
2018-04-27T03:59:58.184Z,788.00
2018-04-27T04:00:58.199Z,828.00
2018-04-27T04:01:58.212Z,876.00
2018-04-27T04:02:58.226Z,920.00
2018-04-27T04:03:58.238Z,964.00
2018-04-27T04:04:58.255Z,1016.00
2018-04-27T04:05:58.267Z,1068.00
2018-04-27T04:06:58.283Z,1128.00
2018-04-27T04:07:58.295Z,1196.00
2018-04-27T04:08:58.307Z,1276.00
2018-04-27T04:09:58.320Z,1344.00
2018-04-27T04:10:58.334Z,1416.00
2018-04-27T04:11:58.367Z,1492.00
2018-04-27T04:12:58.360Z,1584.00
2018-04-27T04:13:58.380Z,1696.00
2018-04-27T04:14:58.388Z,1840.00
2018-04-27T04:15:58.401Z,2020.00
2018-04-27T04:16:58.415Z,2172.00
2018-04-27T04:17:58.428Z,2264.00
2018-04-27T04:18:58.443Z,2312.00
2018-04-27T04:19:58.467Z,2360.00
2018-04-27T04:20:58.469Z,2400.00
2018-04-27T04:21:58.481Z,2408.00
2018-04-27T04:22:58.496Z,2440.00
2018-04-27T04:23:58.509Z,2488.00
2018-04-27T04:24:58.522Z,2528.00
2018-04-27T04:25:58.539Z,2512.00
2018-04-27T04:26:58.556Z,2420.00
2018-04-27T04:27:58.562Z,2356.00
2018-04-27T04:28:58.576Z,2388.00
2018-04-27T04:29:58.590Z,2520.00
2018-04-27T04:30:58.603Z,2716.00
2018-04-27T04:31:58.617Z,2900.00
2018-04-27T04:32:58.642Z,3100.00
2018-04-27T04:33:58.657Z,3388.00
2018-04-27T04:34:58.669Z,3596.00
2018-04-27T04:35:58.683Z,3536.00
2018-04-27T04:36:58.696Z,3432.00
2018-04-27T04:37:58.712Z,3456.00
2018-04-27T04:38:58.740Z,3724.00
2018-04-27T04:39:58.741Z,3884.00
2018-04-27T04:40:58.749Z,3892.00
2018-04-27T04:41:58.767Z,3836.00
2018-04-27T04:42:58.776Z,3780.00
2018-04-27T04:43:58.791Z,3776.00
2018-04-27T04:44:58.804Z,3764.00
2018-04-27T04:45:58.829Z,3924.00
2018-04-27T04:46:58.844Z,3924.00
2018-04-27T04:47:58.857Z,3932.00
2018-04-27T04:48:58.872Z,4136.00
2018-04-27T04:49:58.883Z,4416.00
2018-04-27T04:50:58.898Z,4688.00
2018-04-27T04:51:58.924Z,4804.00
2018-04-27T04:52:58.925Z,4816.00
2018-04-27T04:53:58.939Z,4692.00
2018-04-27T04:54:58.952Z,4348.00
2018-04-27T04:55:58.967Z,4084.00
2018-04-27T04:56:58.991Z,3700.00
2018-04-27T04:57:59.006Z,3344.00
2018-04-27T04:58:59.019Z,3528.00
2018-04-27T04:59:59.032Z,3668.00
2018-04-27T05:00:59.045Z,3884.00
2018-04-27T05:01:59.059Z,4028.00
2018-04-27T05:02:59.084Z,4260.00
2018-04-27T05:03:59.098Z,4144.00
2018-04-27T05:04:59.113Z,4400.00
2018-04-27T05:05:59.125Z,5152.00
2018-04-27T05:06:59.141Z,5584.00
2018-04-27T05:07:59.155Z,5592.00
2018-04-27T05:08:59.165Z,5580.00
2018-04-27T05:09:59.180Z,5708.00
2018-04-27T05:10:59.205Z,5376.00
2018-04-27T05:11:59.219Z,5448.00
2018-04-27T05:12:59.232Z,6532.00
2018-04-27T05:13:59.246Z,6900.00
2018-04-27T05:14:59.259Z,7092.00
2018-04-27T05:15:59.276Z,7088.00
2018-04-27T05:16:59.298Z,7124.00
2018-04-27T05:17:59.389Z,6856.00
2018-04-27T05:18:59.382Z,6844.00
2018-04-27T05:19:59.340Z,6932.00
2018-04-27T05:20:59.365Z,6356.00
2018-04-27T05:21:59.367Z,6540.00
2018-04-27T05:22:59.393Z,6748.00
2018-04-27T05:23:59.406Z,6840.00
2018-04-27T05:24:59.418Z,6944.00
2018-04-27T05:25:59.432Z,7040.00
2018-04-27T05:26:59.445Z,7148.00
2018-04-27T05:27:59.476Z,7316.00
2018-04-27T05:28:59.488Z,7472.00
2018-04-27T05:29:59.511Z,7552.00
2018-04-27T05:30:59.513Z,7692.00
2018-04-27T05:31:59.526Z,7848.00
2018-04-27T05:32:59.551Z,8024.00
2018-04-27T05:33:59.565Z,8120.00
2018-04-27T05:34:59.579Z,8164.00
2018-04-27T05:35:59.593Z,8332.00
2018-04-27T05:36:59.605Z,8628.00
2018-04-27T05:37:59.631Z,8916.00
2018-04-27T05:38:59.645Z,8976.00
2018-04-27T05:39:59.658Z,9044.00
2018-04-27T05:40:59.672Z,9240.00
2018-04-27T05:41:59.686Z,9368.00
2018-04-27T05:42:59.711Z,9468.00
2018-04-27T05:43:59.725Z,9392.00
2018-04-27T05:44:59.737Z,9184.00
2018-04-27T05:45:59.752Z,9016.00
2018-04-27T05:46:59.765Z,8980.00
2018-04-27T05:47:59.790Z,9028.00
2018-04-27T05:48:59.842Z,8948.00
2018-04-27T05:49:59.819Z,8812.00
2018-04-27T05:50:59.832Z,8624.00
2018-04-27T05:51:59.864Z,8720.00
2018-04-27T05:52:59.870Z,8764.00
2018-04-27T05:53:59.884Z,8888.00
2018-04-27T05:54:59.897Z,9044.00
2018-04-27T05:55:59.936Z,9332.00
2018-04-27T05:56:59.942Z,9684.00
2018-04-27T05:57:59.950Z,9348.00
2018-04-27T05:58:59.966Z,9428.00
2018-04-27T05:59:59.991Z,9444.00
2018-04-27T06:01:00.003Z,9356.00
2018-04-27T06:02:00.019Z,9272.00
2018-04-27T06:03:00.031Z,9344.00
2018-04-27T06:04:00.070Z,10248.00
2018-04-27T06:05:00.071Z,10432.00
2018-04-27T06:06:00.083Z,10832.00
2018-04-27T06:07:00.100Z,11296.00
2018-04-27T06:08:00.124Z,11900.00
2018-04-27T06:09:00.136Z,12624.00
2018-04-27T06:10:00.151Z,12720.00
2018-04-27T06:11:00.177Z,12472.00
2018-04-27T06:12:00.195Z,12368.00
2018-04-27T06:13:00.204Z,12440.00
2018-04-27T06:14:00.230Z,11952.00
2018-04-27T06:15:00.242Z,12240.00
2018-04-27T06:16:00.256Z,13084.00
2018-04-27T06:17:00.270Z,13820.00
2018-04-27T06:18:00.296Z,13032.00
2018-04-27T06:19:00.310Z,14884.00
2018-04-27T06:20:00.322Z,17568.00
2018-04-27T06:21:00.353Z,21760.00
2018-04-27T06:22:00.363Z,23936.00
2018-04-27T06:23:00.380Z,26304.00
2018-04-27T06:24:00.415Z,24992.00
2018-04-27T06:25:00.417Z,19808.00
2018-04-27T06:26:00.442Z,22304.00
2018-04-27T06:27:00.454Z,26496.00
2018-04-27T06:28:00.467Z,25600.00
2018-04-27T06:29:00.494Z,23232.00
2018-04-27T06:30:00.507Z,25056.00
2018-04-27T06:31:00.534Z,24160.00
2018-04-27T06:32:00.548Z,24320.00
2018-04-27T06:33:00.560Z,24480.00
2018-04-27T06:34:00.586Z,22976.00
2018-04-27T06:35:00.600Z,21888.00
2018-04-27T06:36:00.627Z,21760.00
2018-04-27T06:37:00.638Z,19328.00
2018-04-27T06:38:00.665Z,18304.00
2018-04-27T06:39:00.679Z,19008.00
2018-04-27T06:40:00.705Z,21536.00
2018-04-27T06:41:00.717Z,22368.00
2018-04-27T06:42:00.744Z,23296.00
2018-04-27T06:43:00.757Z,24928.00
2018-04-27T06:44:00.785Z,26656.00
2018-04-27T06:45:00.796Z,28608.00
2018-04-27T06:46:00.838Z,30080.00
2018-04-27T06:47:00.837Z,32352.00
2018-04-27T06:48:00.862Z,35808.00
2018-04-27T06:49:00.888Z,36736.00
2018-04-27T06:50:00.916Z,35296.00
2018-04-27T06:51:00.927Z,35648.00
2018-04-27T06:52:00.941Z,36096.00
2018-04-27T06:53:00.969Z,28288.00
2018-04-27T06:54:00.994Z,30976.00
2018-04-27T06:55:01.007Z,31904.00
2018-04-27T06:56:01.032Z,34432.00
2018-04-27T06:57:01.059Z,35104.00
2018-04-27T06:58:01.073Z,37504.00
2018-04-27T06:59:01.098Z,38976.00
2018-04-27T07:00:01.125Z,38560.00
2018-04-27T07:01:01.142Z,39040.00
2018-04-27T07:02:01.163Z,39488.00
2018-04-27T07:03:01.189Z,40416.00
2018-04-27T07:04:01.203Z,43040.00
2018-04-27T07:05:01.309Z,42016.00
2018-04-27T07:06:01.261Z,39936.00
2018-04-27T07:07:01.282Z,38208.00
2018-04-27T07:08:01.294Z,40736.00
2018-04-27T07:09:01.327Z,42272.00
2018-04-27T07:10:01.347Z,42560.00
2018-04-27T07:11:01.372Z,44992.00
2018-04-27T07:12:01.387Z,43168.00
2018-04-27T07:13:01.413Z,37376.00
2018-04-27T07:14:01.439Z,46240.00
2018-04-27T07:15:01.466Z,43264.00
2018-04-27T07:16:01.478Z,44960.00
2018-04-27T07:17:01.531Z,47200.00
2018-04-27T07:18:01.529Z,47456.00
2018-04-27T07:19:01.558Z,44224.00
2018-04-27T07:20:01.582Z,48768.00
2018-04-27T07:21:01.607Z,48736.00
2018-04-27T07:22:01.627Z,51136.00
2018-04-27T07:23:01.648Z,42368.00
2018-04-27T07:24:01.673Z,41184.00
2018-04-27T07:25:01.701Z,34752.00
2018-04-27T07:26:01.737Z,41472.00
2018-04-27T07:27:01.753Z,38112.00
2018-04-27T07:28:01.778Z,43040.00
2018-04-27T07:29:01.803Z,47360.00
2018-04-27T07:30:01.823Z,46848.00
2018-04-27T07:31:01.843Z,54976.00
2018-04-27T07:32:01.869Z,34848.00
2018-04-27T07:33:01.894Z,44800.00
2018-04-27T07:34:01.921Z,53056.00
2018-04-27T07:35:01.946Z,48416.00
2018-04-27T07:36:02.007Z,51776.00
2018-04-27T07:37:01.998Z,50720.00
2018-04-27T07:38:02.026Z,50880.00
2018-04-27T07:39:02.039Z,49440.00
2018-04-27T07:40:02.065Z,39776.00
2018-04-27T07:41:02.092Z,40576.00
2018-04-27T07:42:02.117Z,37152.00
2018-04-27T07:43:02.142Z,34336.00
2018-04-27T07:44:02.172Z,33952.00
2018-04-27T07:45:02.195Z,33664.00
2018-04-27T07:46:02.221Z,39392.00
2018-04-27T07:47:02.246Z,48384.00
2018-04-27T07:48:02.272Z,50592.00
2018-04-27T07:49:02.299Z,45792.00
2018-04-27T07:50:02.324Z,39872.00
2018-04-27T07:51:02.350Z,33632.00
2018-04-27T07:52:02.377Z,26976.00
2018-04-27T07:53:02.402Z,26816.00
2018-04-27T07:54:02.428Z,39904.00
2018-04-27T07:55:02.458Z,46976.00
2018-04-27T07:56:02.469Z,50112.00
2018-04-27T07:57:02.494Z,44640.00
2018-04-27T07:58:02.520Z,52096.00
2018-04-27T07:59:02.544Z,44992.00
2018-04-27T08:00:02.579Z,34336.00
2018-04-27T08:01:02.597Z,55168.00
2018-04-27T08:02:02.683Z,56864.00
2018-04-27T08:03:02.648Z,60160.00
2018-04-27T08:04:02.680Z,63520.00
2018-04-27T08:05:02.701Z,60096.00
2018-04-27T08:06:02.727Z,54496.00
2018-04-27T08:07:02.752Z,32640.00
2018-04-27T08:08:02.779Z,14980.00
2018-04-27T08:09:02.807Z,14044.00
2018-04-27T08:10:02.831Z,14068.00
2018-04-27T08:11:02.857Z,13260.00
2018-04-27T08:12:02.883Z,13144.00
2018-04-27T08:13:02.910Z,12960.00
2018-04-27T08:14:02.935Z,12720.00
2018-04-27T08:15:02.966Z,12624.00
2018-04-27T08:16:02.986Z,12220.00
2018-04-27T08:17:03.013Z,11808.00
2018-04-27T08:18:03.039Z,11468.00
2018-04-27T08:19:03.065Z,11172.00
2018-04-27T08:20:03.090Z,11304.00
2018-04-27T08:21:03.105Z,10624.00
2018-04-27T08:22:03.131Z,10152.00
2018-04-27T08:23:03.156Z,10264.00
2018-04-27T08:24:03.181Z,10472.00
2018-04-27T08:25:03.209Z,10684.00
2018-04-27T08:26:03.234Z,10932.00
2018-04-27T08:27:03.259Z,10944.00
2018-04-27T08:28:03.273Z,11212.00
2018-04-27T08:29:03.298Z,11192.00
2018-04-27T08:30:03.325Z,11028.00
2018-04-27T08:31:03.339Z,11140.00
2018-04-27T08:32:03.365Z,10888.00
2018-04-27T08:33:03.391Z,11248.00
2018-04-27T08:34:03.417Z,11396.00
2018-04-27T08:35:03.429Z,11308.00
2018-04-27T08:36:03.469Z,11340.00
2018-04-27T08:37:03.481Z,11340.00
2018-04-27T08:38:03.506Z,11316.00
2018-04-27T08:39:03.521Z,11076.00
2018-04-27T08:40:03.548Z,10696.00
2018-04-27T08:41:03.573Z,10620.00
2018-04-27T08:42:03.588Z,10512.00
2018-04-27T08:43:03.612Z,10964.00
2018-04-27T08:44:03.639Z,10896.00
2018-04-27T08:45:03.653Z,10616.00
2018-04-27T08:46:03.679Z,10444.00
2018-04-27T08:47:03.704Z,10448.00
2018-04-27T08:48:03.717Z,10740.00
2018-04-27T08:49:03.744Z,11060.00
2018-04-27T08:50:03.783Z,11300.00
2018-04-27T08:51:03.784Z,11236.00
2018-04-27T08:52:03.809Z,11032.00
2018-04-27T08:53:03.837Z,11452.00
2018-04-27T08:54:03.849Z,12240.00
2018-04-27T08:55:03.878Z,12004.00
2018-04-27T08:56:03.901Z,11796.00
2018-04-27T08:57:03.927Z,11436.00
2018-04-27T08:58:03.940Z,11568.00
2018-04-27T08:59:03.967Z,11808.00
2018-04-27T09:00:03.983Z,11832.00
2018-04-27T09:01:04.010Z,13428.00
2018-04-27T09:02:04.037Z,13184.00
2018-04-27T09:03:04.048Z,12388.00
2018-04-27T09:04:04.073Z,12212.00
2018-04-27T09:05:04.099Z,11868.00
2018-04-27T09:06:04.125Z,12164.00
2018-04-27T09:07:04.140Z,12276.00
2018-04-27T09:08:04.165Z,11992.00
2018-04-27T09:09:04.190Z,12188.00
2018-04-27T09:10:04.205Z,13472.00
2018-04-27T09:11:04.231Z,14836.00
2018-04-27T09:12:04.257Z,14816.00
2018-04-27T09:13:04.270Z,14704.00
2018-04-27T09:14:04.295Z,14332.00
2018-04-27T09:15:04.323Z,14148.00
2018-04-27T09:16:04.335Z,13424.00
2018-04-27T09:17:04.362Z,12348.00
2018-04-27T09:18:04.388Z,12456.00
2018-04-27T09:19:04.401Z,12840.00
2018-04-27T09:20:04.426Z,13720.00
2018-04-27T09:21:04.452Z,14412.00
2018-04-27T09:22:04.478Z,14444.00
2018-04-27T09:23:04.493Z,13328.00
2018-04-27T09:24:04.520Z,12068.00
2018-04-27T09:25:04.533Z,10984.00
2018-04-27T09:26:04.559Z,10488.00
2018-04-27T09:27:04.583Z,10112.00
2018-04-27T09:28:04.615Z,10108.00
2018-04-27T09:29:04.623Z,10128.00
2018-04-27T09:30:04.650Z,10288.00
2018-04-27T09:31:04.676Z,10320.00
2018-04-27T09:32:04.688Z,10612.00
2018-04-27T09:33:04.715Z,10508.00
2018-04-27T09:34:04.741Z,10332.00
2018-04-27T09:35:04.759Z,9968.00
2018-04-27T09:36:04.780Z,10160.00
2018-04-27T09:37:04.806Z,9680.00
2018-04-27T09:38:04.820Z,10680.00
2018-04-27T09:39:04.845Z,11036.00
2018-04-27T09:40:04.871Z,11424.00
2018-04-27T09:41:04.929Z,11368.00
2018-04-27T09:42:04.912Z,11100.00
2018-04-27T09:43:04.937Z,10996.00
2018-04-27T09:44:04.964Z,11036.00
2018-04-27T09:45:04.978Z,11172.00
2018-04-27T09:46:05.003Z,11228.00
2018-04-27T09:47:05.028Z,11116.00
2018-04-27T09:48:05.042Z,10956.00
2018-04-27T09:49:05.068Z,11076.00
2018-04-27T09:50:05.096Z,11184.00
2018-04-27T09:51:05.109Z,11164.00
2018-04-27T09:52:05.133Z,11196.00
2018-04-27T09:53:05.159Z,11580.00
2018-04-27T09:54:05.185Z,12140.00
2018-04-27T09:55:05.198Z,12708.00
2018-04-27T09:56:05.226Z,14420.00
2018-04-27T09:57:05.252Z,11692.00
2018-04-27T09:58:05.264Z,11956.00
2018-04-27T09:59:05.289Z,62592.00
2018-04-27T10:00:05.316Z,49888.00
2018-04-27T10:01:05.340Z,13936.00
2018-04-27T10:02:05.354Z,23872.00
2018-04-27T10:03:05.383Z,31520.00
2018-04-27T10:04:05.407Z,44064.00
2018-04-27T10:05:05.421Z,72256.00
2018-04-27T10:06:05.447Z,89536.00
2018-04-27T10:07:05.471Z,86176.00
2018-04-27T10:08:05.496Z,60992.00
2018-04-27T10:09:05.522Z,34848.00
2018-04-27T10:10:05.548Z,48544.00
2018-04-27T10:11:05.563Z,77344.00
2018-04-27T10:12:05.589Z,82816.00
2018-04-27T10:13:05.614Z,69600.00
2018-04-27T10:14:05.641Z,40672.00
2018-04-27T10:15:05.748Z,17296.00
2018-04-27T10:16:05.692Z,20960.00
2018-04-27T10:17:05.735Z,47360.00
2018-04-27T10:18:05.757Z,77216.00
2018-04-27T10:19:05.783Z,75008.00
2018-04-27T10:20:05.810Z,86720.00
2018-04-27T10:21:05.834Z,88928.00
2018-04-27T10:22:05.861Z,92160.00
2018-04-27T10:23:05.890Z,93888.00
2018-04-27T10:24:05.914Z,93408.00
2018-04-27T10:25:05.953Z,93920.00
2018-04-27T10:26:05.980Z,93344.00
2018-04-27T10:27:06.005Z,92128.00
2018-04-27T10:28:06.043Z,75840.00
2018-04-27T10:29:06.069Z,10964.00
2018-04-27T10:30:06.108Z,10872.00
2018-04-27T10:31:06.213Z,11256.00
2018-04-27T10:32:06.160Z,91072.00
2018-04-27T10:33:06.198Z,87264.00
2018-04-27T10:34:06.222Z,89312.00
2018-04-27T10:35:06.254Z,91136.00
2018-04-27T10:36:06.288Z,90912.00
2018-04-27T10:37:06.314Z,87904.00
2018-04-27T10:38:06.352Z,90880.00
2018-04-27T10:39:06.377Z,86912.00
2018-04-27T10:40:06.416Z,90144.00
2018-04-27T10:41:06.444Z,90560.00
2018-04-27T10:42:06.479Z,88512.00
2018-04-27T10:43:06.520Z,88704.00
2018-04-27T10:44:06.544Z,87808.00
2018-04-27T10:45:06.582Z,87936.00
2018-04-27T10:46:06.608Z,88608.00
2018-04-27T10:47:06.648Z,87936.00
2018-04-27T10:48:06.673Z,71520.00
2018-04-27T10:49:06.711Z,48480.00
2018-04-27T10:50:06.751Z,93856.00
2018-04-27T10:51:06.789Z,87040.00
2018-04-27T10:52:06.813Z,93344.00
2018-04-27T10:53:06.854Z,92832.00
2018-04-27T10:54:06.911Z,92544.00
2018-04-27T10:55:06.933Z,91712.00
2018-04-27T10:56:07.000Z,91104.00
2018-04-27T10:57:06.999Z,90272.00
2018-04-27T10:58:07.034Z,87488.00
2018-04-27T10:59:07.071Z,88800.00
2018-04-27T11:00:07.111Z,89728.00
2018-04-27T11:01:07.148Z,89664.00
2018-04-27T11:02:07.174Z,96832.00
2018-04-27T11:03:07.214Z,21120.00
2018-04-27T11:04:07.252Z,84224.00
2018-04-27T11:05:07.294Z,97888.00
2018-04-27T11:06:07.328Z,94272.00
2018-04-27T11:07:07.369Z,90752.00
2018-04-27T11:08:07.406Z,90208.00
2018-04-27T11:09:07.433Z,60960.00
2018-04-27T11:10:07.473Z,90720.00
2018-04-27T11:11:07.510Z,16580.00
2018-04-27T11:12:07.551Z,13044.00
2018-04-27T11:13:07.587Z,11364.00
2018-04-27T11:14:07.626Z,11608.00
2018-04-27T11:15:07.665Z,13776.00
2018-04-27T11:16:07.703Z,17392.00
2018-04-27T11:17:07.740Z,20832.00
2018-04-27T11:18:07.766Z,38400.00
2018-04-27T11:19:07.806Z,55776.00
2018-04-27T11:20:07.847Z,73984.00
2018-04-27T11:21:07.883Z,38528.00
2018-04-27T11:22:07.913Z,94560.00
2018-04-27T11:23:07.947Z,97824.00
2018-04-27T11:24:07.973Z,92320.00
2018-04-27T11:25:08.013Z,92256.00
2018-04-27T11:26:08.086Z,92000.00
2018-04-27T11:27:08.076Z,92640.00
2018-04-27T11:28:08.116Z,94432.00
2018-04-27T11:29:08.154Z,66368.00
2018-04-27T11:30:08.180Z,87936.00
2018-04-27T11:31:08.219Z,86592.00
2018-04-27T11:32:08.256Z,84736.00
2018-04-27T11:33:08.296Z,75168.00
2018-04-27T11:34:08.322Z,88000.00
2018-04-27T11:35:08.379Z,88128.00
2018-04-27T11:36:08.402Z,86976.00
2018-04-27T11:37:08.436Z,87168.00
2018-04-27T11:38:08.475Z,86336.00
2018-04-27T11:39:08.512Z,87872.00
2018-04-27T11:40:08.541Z,85856.00
2018-04-27T11:41:08.578Z,85376.00
2018-04-27T11:42:08.620Z,80896.00
2018-04-27T11:43:08.656Z,18752.00
2018-04-27T11:44:08.706Z,74976.00
2018-04-27T11:45:08.734Z,28512.00
2018-04-27T11:46:08.770Z,31648.00
2018-04-27T11:47:08.809Z,15496.00
2018-04-27T11:48:08.836Z,14952.00
2018-04-27T11:49:08.874Z,50752.00
2018-04-27T11:50:08.912Z,76960.00
2018-04-27T11:51:08.961Z,80960.00
2018-04-27T11:52:08.989Z,81088.00
2018-04-27T11:53:09.111Z,76064.00
2018-04-27T11:54:09.052Z,76192.00
2018-04-27T11:55:09.091Z,28640.00
2018-04-27T11:56:09.131Z,88032.00
2018-04-27T11:57:09.155Z,83808.00
2018-04-27T11:58:09.194Z,72128.00
2018-04-27T11:59:09.232Z,40864.00
2018-04-27T12:00:09.257Z,58880.00
2018-04-27T12:01:09.297Z,71936.00
2018-04-27T12:02:09.336Z,25664.00
2018-04-27T12:03:09.361Z,34656.00
2018-04-27T12:04:09.406Z,76288.00
2018-04-27T12:05:09.451Z,81216.00
2018-04-27T12:06:09.464Z,78432.00
2018-04-27T12:07:09.504Z,71616.00
2018-04-27T12:08:09.541Z,70368.00
2018-04-27T12:09:09.566Z,64544.00
2018-04-27T12:10:09.606Z,63488.00
2018-04-27T12:11:09.644Z,59264.00
2018-04-27T12:12:09.683Z,59072.00
2018-04-27T12:13:09.712Z,61088.00
2018-04-27T12:14:09.747Z,56896.00
2018-04-27T12:15:09.773Z,58176.00